sensor_id;sensor_type;location;lat;lon;timestamp;P1;durP1;ratioP1;P2;durP2;ratioP2
2219;SDS011;1116;51.502;7.414;2023-08-07T00:01:09;13.50;;;8.75;;
2219;SDS011;1116;51.502;7.414;2023-08-07T00:03:39;9.13;;;7.57;;
2219;SDS011;1116;51.502;7.414;2023-08-07T00:06:09;13.52;;;7.78;;
2219;SDS011;1116;51.502;7.414;2023-08-07T00:08:41;10.48;;;6.35;;
2219;SDS011;1116;51.502;7.414;2023-08-07T00:11:12;10.02;;;6.80;;
2219;SDS011;1116;51.502;7.414;2023-08-07T00:13:43;9.13;;;5.30;;
2219;SDS011;1116;51.502;7.414;2023-08-07T00:16:17;10.27;;;4.90;;
2219;SDS011;1116;51.502;7.414;2023-08-07T00:18:47;13.57;;;6.03;;
2219;SDS011;1116;51.502;7.414;2023-08-07T00:21:19;8.20;;;4.80;;
2219;SDS011;1116;51.502;7.414;2023-08-07T00:23:49;8.55;;;4.93;;
2219;SDS011;1116;51.502;7.414;2023-08-07T00:26:22;7.03;;;4.90;;
2219;SDS011;1116;51.502;7.414;2023-08-07T00:28:53;6.90;;;4.40;;
2219;SDS011;1116;51.502;7.414;2023-08-07T00:31:27;6.72;;;3.80;;
2219;SDS011;1116;51.502;7.414;2023-08-07T00:33:59;5.80;;;3.67;;
2219;SDS011;1116;51.502;7.414;2023-08-07T00:36:31;5.78;;;3.47;;
2219;SDS011;1116;51.502;7.414;2023-08-07T00:39:02;8.43;;;3.58;;
2219;SDS011;1116;51.502;7.414;2023-08-07T00:41:35;5.53;;;3.10;;
2219;SDS011;1116;51.502;7.414;2023-08-07T00:44:06;6.78;;;2.80;;
2219;SDS011;1116;51.502;7.414;2023-08-07T00:46:40;5.78;;;2.90;;
2219;SDS011;1116;51.502;7.414;2023-08-07T00:49:11;4.20;;;2.40;;
2219;SDS011;1116;51.502;7.414;2023-08-07T00:51:43;5.68;;;3.00;;
2219;SDS011;1116;51.502;7.414;2023-08-07T00:54:14;5.00;;;2.70;;
2219;SDS011;1116;51.502;7.414;2023-08-07T00:56:48;8.13;;;2.90;;
2219;SDS011;1116;51.502;7.414;2023-08-07T00:59:20;4.55;;;3.13;;
2219;SDS011;1116;51.502;7.414;2023-08-07T01:01:55;9.77;;;3.80;;
2219;SDS011;1116;51.502;7.414;2023-08-07T01:04:25;6.28;;;3.97;;
2219;SDS011;1116;51.502;7.414;2023-08-07T01:06:56;8.55;;;3.75;;
2219;SDS011;1116;51.502;7.414;2023-08-07T01:09:26;7.45;;;3.85;;
2219;SDS011;1116;51.502;7.414;2023-08-07T01:11:59;5.43;;;3.20;;
2219;SDS011;1116;51.502;7.414;2023-08-07T01:14:49;7.07;;;3.70;;
2219;SDS011;1116;51.502;7.414;2023-08-07T01:17:27;10.32;;;4.47;;
2219;SDS011;1116;51.502;7.414;2023-08-07T01:20:00;6.63;;;3.72;;
2219;SDS011;1116;51.502;7.414;2023-08-07T01:22:33;10.02;;;5.03;;
2219;SDS011;1116;51.502;7.414;2023-08-07T01:25:04;8.18;;;4.95;;
2219;SDS011;1116;51.502;7.414;2023-08-07T01:27:36;11.68;;;4.63;;
2219;SDS011;1116;51.502;7.414;2023-08-07T01:30:16;10.93;;;5.35;;
2219;SDS011;1116;51.502;7.414;2023-08-07T01:33:04;6.80;;;3.97;;
2219;SDS011;1116;51.502;7.414;2023-08-07T01:35:43;10.57;;;4.88;;
2219;SDS011;1116;51.502;7.414;2023-08-07T01:38:18;12.82;;;4.80;;
2219;SDS011;1116;51.502;7.414;2023-08-07T01:40:54;6.20;;;4.15;;
2219;SDS011;1116;51.502;7.414;2023-08-07T01:43:26;6.68;;;3.92;;
2219;SDS011;1116;51.502;7.414;2023-08-07T01:45:57;9.23;;;3.58;;
2219;SDS011;1116;51.502;7.414;2023-08-07T01:48:27;5.90;;;3.08;;
2219;SDS011;1116;51.502;7.414;2023-08-07T01:50:58;5.97;;;3.50;;
2219;SDS011;1116;51.502;7.414;2023-08-07T01:53:30;4.30;;;3.33;;
2219;SDS011;1116;51.502;7.414;2023-08-07T01:56:00;6.88;;;3.92;;
2219;SDS011;1116;51.502;7.414;2023-08-07T01:58:31;5.63;;;4.05;;
2219;SDS011;1116;51.502;7.414;2023-08-07T02:01:01;4.28;;;3.58;;
2219;SDS011;1116;51.502;7.414;2023-08-07T02:03:31;8.65;;;5.28;;
2219;SDS011;1116;51.502;7.414;2023-08-07T02:06:01;7.13;;;3.85;;
2219;SDS011;1116;51.502;7.414;2023-08-07T02:08:34;12.65;;;5.15;;
2219;SDS011;1116;51.502;7.414;2023-08-07T02:11:04;10.90;;;4.35;;
2219;SDS011;1116;51.502;7.414;2023-08-07T02:13:34;10.65;;;5.68;;
2219;SDS011;1116;51.502;7.414;2023-08-07T02:16:05;10.48;;;6.50;;
2219;SDS011;1116;51.502;7.414;2023-08-07T02:18:35;13.73;;;6.68;;
2219;SDS011;1116;51.502;7.414;2023-08-07T02:21:05;14.75;;;7.82;;
2219;SDS011;1116;51.502;7.414;2023-08-07T02:23:38;10.68;;;5.25;;
2219;SDS011;1116;51.502;7.414;2023-08-07T02:26:08;9.10;;;4.88;;
2219;SDS011;1116;51.502;7.414;2023-08-07T02:28:39;10.68;;;4.25;;
2219;SDS011;1116;51.502;7.414;2023-08-07T02:31:10;5.60;;;4.07;;
2219;SDS011;1116;51.502;7.414;2023-08-07T02:33:40;5.38;;;3.60;;
2219;SDS011;1116;51.502;7.414;2023-08-07T02:36:11;7.32;;;4.07;;
2219;SDS011;1116;51.502;7.414;2023-08-07T02:38:45;7.93;;;3.33;;
2219;SDS011;1116;51.502;7.414;2023-08-07T02:41:16;6.50;;;3.42;;
2219;SDS011;1116;51.502;7.414;2023-08-07T02:43:47;7.65;;;3.47;;
2219;SDS011;1116;51.502;7.414;2023-08-07T02:46:18;6.45;;;2.70;;
2219;SDS011;1116;51.502;7.414;2023-08-07T02:48:49;6.78;;;3.20;;
2219;SDS011;1116;51.502;7.414;2023-08-07T02:51:21;6.28;;;3.55;;
2219;SDS011;1116;51.502;7.414;2023-08-07T02:53:55;11.80;;;4.25;;
2219;SDS011;1116;51.502;7.414;2023-08-07T02:56:26;8.82;;;4.25;;
2219;SDS011;1116;51.502;7.414;2023-08-07T02:58:57;6.47;;;3.35;;
2219;SDS011;1116;51.502;7.414;2023-08-07T03:01:29;7.15;;;3.90;;
2219;SDS011;1116;51.502;7.414;2023-08-07T03:04:00;5.95;;;3.53;;
2219;SDS011;1116;51.502;7.414;2023-08-07T03:06:31;5.60;;;3.60;;
2219;SDS011;1116;51.502;7.414;2023-08-07T03:09:05;7.70;;;3.85;;
2219;SDS011;1116;51.502;7.414;2023-08-07T03:11:36;4.30;;;2.70;;
2219;SDS011;1116;51.502;7.414;2023-08-07T03:14:07;6.03;;;2.95;;
2219;SDS011;1116;51.502;7.414;2023-08-07T03:16:38;4.20;;;2.70;;
2219;SDS011;1116;51.502;7.414;2023-08-07T03:19:09;3.75;;;2.50;;
2219;SDS011;1116;51.502;7.414;2023-08-07T03:21:41;3.95;;;2.55;;
2219;SDS011;1116;51.502;7.414;2023-08-07T03:24:14;7.53;;;2.80;;
2219;SDS011;1116;51.502;7.414;2023-08-07T03:26:45;6.82;;;2.35;;
2219;SDS011;1116;51.502;7.414;2023-08-07T03:29:17;4.47;;;2.33;;
2219;SDS011;1116;51.502;7.414;2023-08-07T03:31:48;5.65;;;1.73;;
2219;SDS011;1116;51.502;7.414;2023-08-07T03:34:20;2.55;;;1.60;;
2219;SDS011;1116;51.502;7.414;2023-08-07T03:36:51;3.28;;;1.60;;
2219;SDS011;1116;51.502;7.414;2023-08-07T03:39:26;4.05;;;1.70;;
2219;SDS011;1116;51.502;7.414;2023-08-07T03:41:57;9.85;;;2.38;;
2219;SDS011;1116;51.502;7.414;2023-08-07T03:44:28;2.85;;;1.40;;
2219;SDS011;1116;51.502;7.414;2023-08-07T03:47:00;6.72;;;1.58;;
2219;SDS011;1116;51.502;7.414;2023-08-07T03:49:32;2.50;;;1.50;;
2219;SDS011;1116;51.502;7.414;2023-08-07T03:52:03;3.05;;;1.80;;
2219;SDS011;1116;51.502;7.414;2023-08-07T03:54:38;6.90;;;2.53;;
2219;SDS011;1116;51.502;7.414;2023-08-07T03:57:09;5.93;;;2.63;;
2219;SDS011;1116;51.502;7.414;2023-08-07T03:59:40;10.27;;;3.00;;
2219;SDS011;1116;51.502;7.414;2023-08-07T04:02:11;6.60;;;2.33;;
2219;SDS011;1116;51.502;7.414;2023-08-07T04:04:42;6.95;;;2.63;;
2219;SDS011;1116;51.502;7.414;2023-08-07T04:07:13;9.13;;;3.20;;
2219;SDS011;1116;51.502;7.414;2023-08-07T04:09:47;10.30;;;3.80;;
2219;SDS011;1116;51.502;7.414;2023-08-07T04:12:18;13.23;;;3.63;;
2219;SDS011;1116;51.502;7.414;2023-08-07T04:14:49;9.60;;;4.25;;
2219;SDS011;1116;51.502;7.414;2023-08-07T04:17:21;7.80;;;4.05;;
2219;SDS011;1116;51.502;7.414;2023-08-07T04:19:52;9.82;;;4.70;;
2219;SDS011;1116;51.502;7.414;2023-08-07T04:22:23;10.20;;;4.95;;
2219;SDS011;1116;51.502;7.414;2023-08-07T04:24:57;12.57;;;5.18;;
2219;SDS011;1116;51.502;7.414;2023-08-07T04:27:28;11.82;;;5.43;;
2219;SDS011;1116;51.502;7.414;2023-08-07T04:29:59;12.38;;;5.93;;
2219;SDS011;1116;51.502;7.414;2023-08-07T04:32:30;13.02;;;5.70;;
2219;SDS011;1116;51.502;7.414;2023-08-07T04:35:02;16.10;;;7.05;;
2219;SDS011;1116;51.502;7.414;2023-08-07T04:37:34;12.57;;;7.05;;
2219;SDS011;1116;51.502;7.414;2023-08-07T04:40:10;15.68;;;7.00;;
2219;SDS011;1116;51.502;7.414;2023-08-07T04:42:42;16.05;;;7.03;;
2219;SDS011;1116;51.502;7.414;2023-08-07T04:45:13;14.35;;;7.53;;
2219;SDS011;1116;51.502;7.414;2023-08-07T04:47:44;19.25;;;8.52;;
2219;SDS011;1116;51.502;7.414;2023-08-07T04:50:15;18.52;;;7.38;;
2219;SDS011;1116;51.502;7.414;2023-08-07T04:52:46;19.70;;;9.25;;
2219;SDS011;1116;51.502;7.414;2023-08-07T04:55:20;20.75;;;9.35;;
2219;SDS011;1116;51.502;7.414;2023-08-07T04:57:52;21.02;;;9.07;;
2219;SDS011;1116;51.502;7.414;2023-08-07T05:00:24;19.75;;;8.32;;
2219;SDS011;1116;51.502;7.414;2023-08-07T05:02:55;15.27;;;7.90;;
2219;SDS011;1116;51.502;7.414;2023-08-07T05:05:27;19.08;;;8.10;;
2219;SDS011;1116;51.502;7.414;2023-08-07T05:07:58;17.73;;;8.95;;
2219;SDS011;1116;51.502;7.414;2023-08-07T05:10:32;15.60;;;7.78;;
2219;SDS011;1116;51.502;7.414;2023-08-07T05:13:03;17.67;;;7.80;;
2219;SDS011;1116;51.502;7.414;2023-08-07T05:15:34;17.92;;;8.27;;
2219;SDS011;1116;51.502;7.414;2023-08-07T05:18:05;22.23;;;9.02;;
2219;SDS011;1116;51.502;7.414;2023-08-07T05:20:37;18.77;;;9.88;;
2219;SDS011;1116;51.502;7.414;2023-08-07T05:23:07;16.55;;;8.27;;
2219;SDS011;1116;51.502;7.414;2023-08-07T05:25:41;19.60;;;9.77;;
2219;SDS011;1116;51.502;7.414;2023-08-07T05:28:12;22.27;;;7.75;;
2219;SDS011;1116;51.502;7.414;2023-08-07T05:30:43;18.15;;;7.97;;
2219;SDS011;1116;51.502;7.414;2023-08-07T05:33:14;23.90;;;9.10;;
2219;SDS011;1116;51.502;7.414;2023-08-07T05:35:45;14.02;;;7.82;;
2219;SDS011;1116;51.502;7.414;2023-08-07T05:38:16;23.83;;;9.35;;
2219;SDS011;1116;51.502;7.414;2023-08-07T05:40:50;14.55;;;8.90;;
2219;SDS011;1116;51.502;7.414;2023-08-07T05:43:21;19.10;;;9.35;;
2219;SDS011;1116;51.502;7.414;2023-08-07T05:45:51;19.90;;;10.88;;
2219;SDS011;1116;51.502;7.414;2023-08-07T05:48:22;22.15;;;10.13;;
2219;SDS011;1116;51.502;7.414;2023-08-07T05:50:53;21.00;;;11.13;;
2219;SDS011;1116;51.502;7.414;2023-08-07T05:53:24;26.92;;;11.73;;
2219;SDS011;1116;51.502;7.414;2023-08-07T05:55:58;18.83;;;10.35;;
2219;SDS011;1116;51.502;7.414;2023-08-07T05:58:29;13.43;;;9.73;;
2219;SDS011;1116;51.502;7.414;2023-08-07T06:01:00;20.83;;;10.73;;
2219;SDS011;1116;51.502;7.414;2023-08-07T06:03:32;17.20;;;8.95;;
2219;SDS011;1116;51.502;7.414;2023-08-07T06:06:03;16.90;;;9.00;;
2219;SDS011;1116;51.502;7.414;2023-08-07T06:08:34;15.68;;;9.35;;
2219;SDS011;1116;51.502;7.414;2023-08-07T06:11:08;17.73;;;10.63;;
2219;SDS011;1116;51.502;7.414;2023-08-07T06:13:39;15.15;;;9.40;;
2219;SDS011;1116;51.502;7.414;2023-08-07T06:16:11;14.30;;;9.95;;
2219;SDS011;1116;51.502;7.414;2023-08-07T06:18:41;24.35;;;12.32;;
2219;SDS011;1116;51.502;7.414;2023-08-07T06:21:10;25.05;;;11.68;;
2219;SDS011;1116;51.502;7.414;2023-08-07T06:23:41;23.35;;;13.95;;
2219;SDS011;1116;51.502;7.414;2023-08-07T06:26:15;18.48;;;9.90;;
2219;SDS011;1116;51.502;7.414;2023-08-07T06:28:46;21.25;;;12.48;;
2219;SDS011;1116;51.502;7.414;2023-08-07T06:31:17;21.48;;;11.05;;
2219;SDS011;1116;51.502;7.414;2023-08-07T06:33:49;21.98;;;12.40;;
2219;SDS011;1116;51.502;7.414;2023-08-07T06:36:20;27.15;;;14.13;;
2219;SDS011;1116;51.502;7.414;2023-08-07T06:38:51;23.85;;;11.68;;
2219;SDS011;1116;51.502;7.414;2023-08-07T06:41:25;20.65;;;13.68;;
2219;SDS011;1116;51.502;7.414;2023-08-07T06:43:56;26.55;;;13.32;;
2219;SDS011;1116;51.502;7.414;2023-08-07T06:46:26;21.60;;;12.60;;
2219;SDS011;1116;51.502;7.414;2023-08-07T06:48:58;21.17;;;11.27;;
2219;SDS011;1116;51.502;7.414;2023-08-07T06:51:29;21.50;;;11.40;;
2219;SDS011;1116;51.502;7.414;2023-08-07T06:54:00;17.02;;;9.93;;
2219;SDS011;1116;51.502;7.414;2023-08-07T06:56:34;14.25;;;8.20;;
2219;SDS011;1116;51.502;7.414;2023-08-07T06:59:08;14.50;;;8.05;;
2219;SDS011;1116;51.502;7.414;2023-08-07T07:01:39;14.45;;;8.57;;
2219;SDS011;1116;51.502;7.414;2023-08-07T07:04:10;15.65;;;8.25;;
2219;SDS011;1116;51.502;7.414;2023-08-07T07:06:41;15.07;;;8.88;;
2219;SDS011;1116;51.502;7.414;2023-08-07T07:09:13;16.00;;;7.85;;
2219;SDS011;1116;51.502;7.414;2023-08-07T07:11:48;14.25;;;6.65;;
2219;SDS011;1116;51.502;7.414;2023-08-07T07:14:19;12.77;;;6.28;;
2219;SDS011;1116;51.502;7.414;2023-08-07T07:16:50;10.90;;;6.35;;
2219;SDS011;1116;51.502;7.414;2023-08-07T07:19:21;11.30;;;6.65;;
2219;SDS011;1116;51.502;7.414;2023-08-07T07:21:52;14.05;;;6.53;;
2219;SDS011;1116;51.502;7.414;2023-08-07T07:24:24;12.23;;;7.18;;
2219;SDS011;1116;51.502;7.414;2023-08-07T07:26:57;10.70;;;5.90;;
2219;SDS011;1116;51.502;7.414;2023-08-07T07:29:29;10.50;;;6.63;;
2219;SDS011;1116;51.502;7.414;2023-08-07T07:32:00;10.63;;;5.60;;
2219;SDS011;1116;51.502;7.414;2023-08-07T07:34:31;6.95;;;5.00;;
2219;SDS011;1116;51.502;7.414;2023-08-07T07:37:03;10.80;;;5.28;;
2219;SDS011;1116;51.502;7.414;2023-08-07T07:39:35;37.35;;;7.57;;
2219;SDS011;1116;51.502;7.414;2023-08-07T07:42:09;14.40;;;5.60;;
2219;SDS011;1116;51.502;7.414;2023-08-07T07:44:40;15.40;;;7.32;;
2219;SDS011;1116;51.502;7.414;2023-08-07T07:47:11;14.13;;;5.93;;
2219;SDS011;1116;51.502;7.414;2023-08-07T07:49:44;7.28;;;3.92;;
2219;SDS011;1116;51.502;7.414;2023-08-07T07:52:16;14.40;;;5.85;;
2219;SDS011;1116;51.502;7.414;2023-08-07T07:54:48;28.05;;;7.85;;
2219;SDS011;1116;51.502;7.414;2023-08-07T07:57:21;35.55;;;10.35;;
2219;SDS011;1116;51.502;7.414;2023-08-07T07:59:53;10.00;;;5.30;;
2219;SDS011;1116;51.502;7.414;2023-08-07T08:02:24;17.58;;;7.00;;
2219;SDS011;1116;51.502;7.414;2023-08-07T08:04:56;17.65;;;8.45;;
2219;SDS011;1116;51.502;7.414;2023-08-07T08:07:27;15.43;;;8.30;;
2219;SDS011;1116;51.502;7.414;2023-08-07T08:09:59;12.57;;;7.35;;
2219;SDS011;1116;51.502;7.414;2023-08-07T08:12:33;17.50;;;9.68;;
2219;SDS011;1116;51.502;7.414;2023-08-07T08:15:05;13.93;;;8.27;;
2219;SDS011;1116;51.502;7.414;2023-08-07T08:17:38;19.08;;;7.22;;
2219;SDS011;1116;51.502;7.414;2023-08-07T08:20:09;15.23;;;7.97;;
2219;SDS011;1116;51.502;7.414;2023-08-07T08:22:43;11.30;;;7.07;;
2219;SDS011;1116;51.502;7.414;2023-08-07T08:25:14;17.38;;;9.70;;
2219;SDS011;1116;51.502;7.414;2023-08-07T08:27:48;13.63;;;7.03;;
2219;SDS011;1116;51.502;7.414;2023-08-07T08:30:19;17.10;;;8.05;;
2219;SDS011;1116;51.502;7.414;2023-08-07T08:32:50;16.35;;;5.78;;
2219;SDS011;1116;51.502;7.414;2023-08-07T08:35:22;14.02;;;5.53;;
2219;SDS011;1116;51.502;7.414;2023-08-07T08:37:53;9.93;;;4.55;;
2219;SDS011;1116;51.502;7.414;2023-08-07T08:40:24;9.45;;;4.10;;
2219;SDS011;1116;51.502;7.414;2023-08-07T08:42:57;10.70;;;4.38;;
2219;SDS011;1116;51.502;7.414;2023-08-07T08:45:32;8.73;;;3.13;;
2219;SDS011;1116;51.502;7.414;2023-08-07T08:48:07;6.63;;;2.67;;
2219;SDS011;1116;51.502;7.414;2023-08-07T08:50:41;10.02;;;3.55;;
2219;SDS011;1116;51.502;7.414;2023-08-07T08:53:13;6.43;;;2.88;;
2219;SDS011;1116;51.502;7.414;2023-08-07T08:55:45;8.88;;;3.70;;
2219;SDS011;1116;51.502;7.414;2023-08-07T08:58:19;7.80;;;3.10;;
2219;SDS011;1116;51.502;7.414;2023-08-07T09:00:51;9.38;;;3.67;;
2219;SDS011;1116;51.502;7.414;2023-08-07T09:03:23;10.85;;;3.53;;
2219;SDS011;1116;51.502;7.414;2023-08-07T09:05:57;12.98;;;5.68;;
2219;SDS011;1116;51.502;7.414;2023-08-07T09:08:29;8.55;;;5.28;;
2219;SDS011;1116;51.502;7.414;2023-08-07T09:11:01;13.43;;;8.10;;
2219;SDS011;1116;51.502;7.414;2023-08-07T09:13:36;14.55;;;7.07;;
2219;SDS011;1116;51.502;7.414;2023-08-07T09:16:08;13.30;;;5.65;;
2219;SDS011;1116;51.502;7.414;2023-08-07T09:18:39;17.10;;;5.63;;
2219;SDS011;1116;51.502;7.414;2023-08-07T09:21:11;12.82;;;6.03;;
2219;SDS011;1116;51.502;7.414;2023-08-07T09:23:44;18.25;;;6.28;;
2219;SDS011;1116;51.502;7.414;2023-08-07T09:26:15;16.13;;;6.82;;
2219;SDS011;1116;51.502;7.414;2023-08-07T09:28:57;14.43;;;6.60;;
2219;SDS011;1116;51.502;7.414;2023-08-07T09:31:29;21.42;;;6.43;;
2219;SDS011;1116;51.502;7.414;2023-08-07T09:34:03;16.73;;;6.57;;
2219;SDS011;1116;51.502;7.414;2023-08-07T09:36:34;19.65;;;5.20;;
2219;SDS011;1116;51.502;7.414;2023-08-07T09:39:05;15.98;;;5.90;;
2219;SDS011;1116;51.502;7.414;2023-08-07T09:41:38;18.85;;;6.15;;
2219;SDS011;1116;51.502;7.414;2023-08-07T09:44:10;21.67;;;5.50;;
2219;SDS011;1116;51.502;7.414;2023-08-07T09:46:42;16.80;;;5.93;;
2219;SDS011;1116;51.502;7.414;2023-08-07T09:49:13;14.85;;;4.88;;
2219;SDS011;1116;51.502;7.414;2023-08-07T09:51:47;19.35;;;5.70;;
2219;SDS011;1116;51.502;7.414;2023-08-07T09:54:18;14.80;;;5.57;;
2219;SDS011;1116;51.502;7.414;2023-08-07T09:56:50;19.13;;;5.38;;
2219;SDS011;1116;51.502;7.414;2023-08-07T09:59:29;13.60;;;5.25;;
2219;SDS011;1116;51.502;7.414;2023-08-07T10:02:03;18.33;;;5.45;;
2219;SDS011;1116;51.502;7.414;2023-08-07T10:04:35;11.77;;;4.10;;
2219;SDS011;1116;51.502;7.414;2023-08-07T10:07:06;17.15;;;4.63;;
2219;SDS011;1116;51.502;7.414;2023-08-07T10:09:39;14.93;;;5.30;;
2219;SDS011;1116;51.502;7.414;2023-08-07T10:12:11;18.20;;;4.40;;
2219;SDS011;1116;51.502;7.414;2023-08-07T10:14:45;10.98;;;4.50;;
2219;SDS011;1116;51.502;7.414;2023-08-07T10:17:17;16.38;;;4.95;;
2219;SDS011;1116;51.502;7.414;2023-08-07T10:19:50;16.83;;;5.25;;
2219;SDS011;1116;51.502;7.414;2023-08-07T10:22:22;19.45;;;5.70;;
2219;SDS011;1116;51.502;7.414;2023-08-07T10:24:56;11.07;;;4.28;;
2219;SDS011;1116;51.502;7.414;2023-08-07T10:27:31;13.77;;;4.97;;
2219;SDS011;1116;51.502;7.414;2023-08-07T10:30:09;14.00;;;4.38;;
2219;SDS011;1116;51.502;7.414;2023-08-07T10:32:43;13.90;;;4.13;;
2219;SDS011;1116;51.502;7.414;2023-08-07T10:35:25;13.90;;;4.57;;
2219;SDS011;1116;51.502;7.414;2023-08-07T10:38:05;12.90;;;3.97;;
2219;SDS011;1116;51.502;7.414;2023-08-07T10:43:32;9.43;;;3.28;;
2219;SDS011;1116;51.502;7.414;2023-08-07T10:46:11;9.65;;;3.58;;
2219;SDS011;1116;51.502;7.414;2023-08-07T10:48:44;11.82;;;4.63;;
2219;SDS011;1116;51.502;7.414;2023-08-07T10:51:16;10.80;;;3.20;;
2219;SDS011;1116;51.502;7.414;2023-08-07T10:53:48;12.93;;;4.00;;
2219;SDS011;1116;51.502;7.414;2023-08-07T10:56:29;13.30;;;3.50;;
2219;SDS011;1116;51.502;7.414;2023-08-07T10:59:07;9.90;;;3.67;;
2219;SDS011;1116;51.502;7.414;2023-08-07T11:01:43;11.70;;;3.60;;
2219;SDS011;1116;51.502;7.414;2023-08-07T11:04:21;9.07;;;3.38;;
2219;SDS011;1116;51.502;7.414;2023-08-07T11:06:54;12.40;;;3.60;;
2219;SDS011;1116;51.502;7.414;2023-08-07T11:09:24;10.75;;;3.50;;
2219;SDS011;1116;51.502;7.414;2023-08-07T11:11:55;12.25;;;4.18;;
2219;SDS011;1116;51.502;7.414;2023-08-07T11:14:25;12.98;;;3.50;;
2219;SDS011;1116;51.502;7.414;2023-08-07T11:16:58;11.15;;;3.25;;
2219;SDS011;1116;51.502;7.414;2023-08-07T11:19:29;10.85;;;3.03;;
2219;SDS011;1116;51.502;7.414;2023-08-07T11:22:00;12.68;;;3.60;;
2219;SDS011;1116;51.502;7.414;2023-08-07T11:24:30;8.20;;;3.25;;
2219;SDS011;1116;51.502;7.414;2023-08-07T11:27:01;12.80;;;3.05;;
2219;SDS011;1116;51.502;7.414;2023-08-07T11:29:32;13.27;;;3.38;;
2219;SDS011;1116;51.502;7.414;2023-08-07T11:32:07;7.53;;;2.80;;
2219;SDS011;1116;51.502;7.414;2023-08-07T11:34:39;14.48;;;3.00;;
2219;SDS011;1116;51.502;7.414;2023-08-07T11:37:14;15.38;;;3.88;;
2219;SDS011;1116;51.502;7.414;2023-08-07T11:39:46;8.75;;;3.00;;
2219;SDS011;1116;51.502;7.414;2023-08-07T11:42:17;8.77;;;2.97;;
2219;SDS011;1116;51.502;7.414;2023-08-07T11:44:48;9.77;;;2.90;;
2219;SDS011;1116;51.502;7.414;2023-08-07T11:47:21;9.30;;;2.60;;
2219;SDS011;1116;51.502;7.414;2023-08-07T11:49:52;8.38;;;2.55;;
2219;SDS011;1116;51.502;7.414;2023-08-07T11:52:24;11.55;;;3.15;;
2219;SDS011;1116;51.502;7.414;2023-08-07T11:54:58;8.93;;;2.60;;
2219;SDS011;1116;51.502;7.414;2023-08-07T12:00:05;12.60;;;3.05;;
2219;SDS011;1116;51.502;7.414;2023-08-07T12:02:45;9.02;;;2.60;;
2219;SDS011;1116;51.502;7.414;2023-08-07T12:05:16;10.25;;;2.83;;
2219;SDS011;1116;51.502;7.414;2023-08-07T12:07:46;9.90;;;2.63;;
2219;SDS011;1116;51.502;7.414;2023-08-07T12:10:18;11.68;;;2.78;;
2219;SDS011;1116;51.502;7.414;2023-08-07T12:12:50;8.63;;;2.20;;
2219;SDS011;1116;51.502;7.414;2023-08-07T12:15:23;5.82;;;2.10;;
2219;SDS011;1116;51.502;7.414;2023-08-07T12:18:02;9.48;;;2.63;;
2219;SDS011;1116;51.502;7.414;2023-08-07T12:20:32;8.27;;;2.55;;
2219;SDS011;1116;51.502;7.414;2023-08-07T12:23:03;6.18;;;2.50;;
2219;SDS011;1116;51.502;7.414;2023-08-07T12:25:34;6.28;;;2.08;;
2219;SDS011;1116;51.502;7.414;2023-08-07T12:28:05;8.57;;;2.45;;
2219;SDS011;1116;51.502;7.414;2023-08-07T12:30:36;10.40;;;2.28;;
2219;SDS011;1116;51.502;7.414;2023-08-07T12:33:10;6.90;;;2.50;;
2219;SDS011;1116;51.502;7.414;2023-08-07T12:35:41;11.13;;;2.40;;
2219;SDS011;1116;51.502;7.414;2023-08-07T12:38:12;8.50;;;2.05;;
2219;SDS011;1116;51.502;7.414;2023-08-07T12:40:45;9.10;;;2.30;;
2219;SDS011;1116;51.502;7.414;2023-08-07T12:43:16;7.35;;;2.42;;
2219;SDS011;1116;51.502;7.414;2023-08-07T12:45:47;8.68;;;2.60;;
2219;SDS011;1116;51.502;7.414;2023-08-07T12:48:23;9.30;;;2.60;;
2219;SDS011;1116;51.502;7.414;2023-08-07T12:50:55;9.15;;;2.25;;
2219;SDS011;1116;51.502;7.414;2023-08-07T12:53:26;8.50;;;2.42;;
2219;SDS011;1116;51.502;7.414;2023-08-07T12:55:57;8.48;;;2.05;;
2219;SDS011;1116;51.502;7.414;2023-08-07T12:58:29;6.22;;;2.10;;
2219;SDS011;1116;51.502;7.414;2023-08-07T13:01:00;7.15;;;2.05;;
2219;SDS011;1116;51.502;7.414;2023-08-07T13:03:33;10.95;;;2.30;;
2219;SDS011;1116;51.502;7.414;2023-08-07T13:06:04;8.43;;;2.75;;
2219;SDS011;1116;51.502;7.414;2023-08-07T13:08:36;6.75;;;2.30;;
2219;SDS011;1116;51.502;7.414;2023-08-07T13:11:08;8.65;;;2.83;;
2219;SDS011;1116;51.502;7.414;2023-08-07T13:13:39;7.45;;;2.45;;
2219;SDS011;1116;51.502;7.414;2023-08-07T13:16:10;8.48;;;2.33;;
2219;SDS011;1116;51.502;7.414;2023-08-07T13:18:44;10.48;;;2.55;;
2219;SDS011;1116;51.502;7.414;2023-08-07T13:21:15;4.50;;;1.85;;
2219;SDS011;1116;51.502;7.414;2023-08-07T13:23:46;7.82;;;2.22;;
2219;SDS011;1116;51.502;7.414;2023-08-07T13:26:18;6.03;;;2.20;;
2219;SDS011;1116;51.502;7.414;2023-08-07T13:28:49;6.13;;;1.90;;
2219;SDS011;1116;51.502;7.414;2023-08-07T13:31:20;6.72;;;2.33;;
2219;SDS011;1116;51.502;7.414;2023-08-07T13:33:54;7.03;;;2.08;;
2219;SDS011;1116;51.502;7.414;2023-08-07T13:36:25;5.50;;;2.53;;
2219;SDS011;1116;51.502;7.414;2023-08-07T13:38:56;5.28;;;1.88;;
2219;SDS011;1116;51.502;7.414;2023-08-07T13:41:28;7.82;;;2.17;;
2219;SDS011;1116;51.502;7.414;2023-08-07T13:43:59;7.28;;;2.30;;
2219;SDS011;1116;51.502;7.414;2023-08-07T13:46:30;7.75;;;2.20;;
2219;SDS011;1116;51.502;7.414;2023-08-07T13:49:03;5.85;;;1.90;;
2219;SDS011;1116;51.502;7.414;2023-08-07T13:51:34;7.88;;;1.90;;
2219;SDS011;1116;51.502;7.414;2023-08-07T13:54:05;8.30;;;1.95;;
2219;SDS011;1116;51.502;7.414;2023-08-07T13:56:37;7.80;;;2.10;;
2219;SDS011;1116;51.502;7.414;2023-08-07T13:59:07;8.13;;;1.52;;
2219;SDS011;1116;51.502;7.414;2023-08-07T14:01:39;7.47;;;2.17;;
2219;SDS011;1116;51.502;7.414;2023-08-07T14:04:13;9.35;;;2.40;;
2219;SDS011;1116;51.502;7.414;2023-08-07T14:06:44;6.97;;;2.30;;
2219;SDS011;1116;51.502;7.414;2023-08-07T14:09:15;7.50;;;2.45;;
2219;SDS011;1116;51.502;7.414;2023-08-07T14:11:49;10.90;;;2.75;;
2219;SDS011;1116;51.502;7.414;2023-08-07T14:14:20;8.85;;;2.72;;
2219;SDS011;1116;51.502;7.414;2023-08-07T14:16:51;6.50;;;2.67;;
2219;SDS011;1116;51.502;7.414;2023-08-07T14:19:27;8.85;;;2.90;;
2219;SDS011;1116;51.502;7.414;2023-08-07T14:21:58;8.75;;;3.03;;
2219;SDS011;1116;51.502;7.414;2023-08-07T14:24:30;9.00;;;2.72;;
2219;SDS011;1116;51.502;7.414;2023-08-07T14:27:00;5.72;;;2.15;;
2219;SDS011;1116;51.502;7.414;2023-08-07T14:29:32;7.43;;;2.42;;
2219;SDS011;1116;51.502;7.414;2023-08-07T14:32:03;9.75;;;2.70;;
2219;SDS011;1116;51.502;7.414;2023-08-07T14:34:37;7.22;;;2.42;;
2219;SDS011;1116;51.502;7.414;2023-08-07T14:37:08;7.28;;;3.05;;
2219;SDS011;1116;51.502;7.414;2023-08-07T14:39:38;7.55;;;3.03;;
2219;SDS011;1116;51.502;7.414;2023-08-07T14:42:09;9.93;;;2.88;;
2219;SDS011;1116;51.502;7.414;2023-08-07T14:44:40;9.55;;;2.70;;
2219;SDS011;1116;51.502;7.414;2023-08-07T14:47:12;5.70;;;2.20;;
2219;SDS011;1116;51.502;7.414;2023-08-07T14:49:45;7.38;;;2.22;;
2219;SDS011;1116;51.502;7.414;2023-08-07T14:52:16;7.47;;;2.65;;
2219;SDS011;1116;51.502;7.414;2023-08-07T14:54:47;8.02;;;2.10;;
2219;SDS011;1116;51.502;7.414;2023-08-07T14:57:19;8.10;;;2.60;;
2219;SDS011;1116;51.502;7.414;2023-08-07T14:59:49;5.40;;;2.00;;
2219;SDS011;1116;51.502;7.414;2023-08-07T15:02:20;7.50;;;2.10;;
2219;SDS011;1116;51.502;7.414;2023-08-07T15:04:54;7.65;;;1.80;;
2219;SDS011;1116;51.502;7.414;2023-08-07T15:07:25;6.20;;;1.85;;
2219;SDS011;1116;51.502;7.414;2023-08-07T15:09:56;8.90;;;2.13;;
2219;SDS011;1116;51.502;7.414;2023-08-07T15:12:28;5.78;;;1.98;;
2219;SDS011;1116;51.502;7.414;2023-08-07T15:14:59;7.10;;;1.73;;
2219;SDS011;1116;51.502;7.414;2023-08-07T15:17:30;7.57;;;1.80;;
2219;SDS011;1116;51.502;7.414;2023-08-07T15:20:05;9.00;;;1.80;;
2219;SDS011;1116;51.502;7.414;2023-08-07T15:22:38;5.43;;;1.80;;
2219;SDS011;1116;51.502;7.414;2023-08-07T15:25:09;7.20;;;2.20;;
2219;SDS011;1116;51.502;7.414;2023-08-07T15:27:41;4.03;;;1.88;;
2219;SDS011;1116;51.502;7.414;2023-08-07T15:30:12;5.68;;;1.88;;
2219;SDS011;1116;51.502;7.414;2023-08-07T15:32:43;5.95;;;1.75;;
2219;SDS011;1116;51.502;7.414;2023-08-07T15:35:17;6.20;;;1.60;;
2219;SDS011;1116;51.502;7.414;2023-08-07T15:37:48;10.52;;;2.22;;
2219;SDS011;1116;51.502;7.414;2023-08-07T15:40:19;6.35;;;2.10;;
2219;SDS011;1116;51.502;7.414;2023-08-07T15:42:50;3.40;;;1.60;;